NOO20L MPTO-KMIA
Flight info
| Callsign | NOO20L |
|---|---|
| Flight time | N/A |
| Altitude | 35000 |
| Route | EGETA3B EGETA DCT DAGAS/N0468F360 UM542 SIA UM347 EPSIM DCT ZEUSS VIICE2 |
| Aircraft | B752/M-SDE3FGHIM3RWXY/LB1 |
Departure
| Time | 2026-05-05 23:03 |
|---|---|
| Airport | Tocumen International Airport (MPTO) |
Arrival
| Time | N/A |
|---|---|
| Airport | Miami International Airport (KMIA) |
| Time | Latitude | Longitude | Altitude | Speed | Heading |
|---|---|---|---|---|---|
| 2026-05-05 22:38 | 9.08635 | -79.37505 | 145 ft | 0 kts | 120° |
| 2026-05-05 22:50 | 9.08635 | -79.37506 | 144 ft | 1 kts | 120° |
| 2026-05-05 22:50 | 9.08643 | -79.37518 | 144 ft | 2 kts | 121° |
| 2026-05-05 22:50 | 9.08650 | -79.37531 | 144 ft | 2 kts | 119° |
| 2026-05-05 22:51 | 9.08658 | -79.37544 | 144 ft | 2 kts | 120° |
| 2026-05-05 22:51 | 9.08666 | -79.37555 | 144 ft | 1 kts | 145° |
| 2026-05-05 22:51 | 9.08677 | -79.37561 | 144 ft | 1 kts | 167° |
| 2026-05-05 22:51 | 9.08691 | -79.37562 | 144 ft | 1 kts | 189° |
| 2026-05-05 22:52 | 9.08704 | -79.37557 | 144 ft | 1 kts | 211° |
| 2026-05-05 22:52 | 9.08715 | -79.37550 | 144 ft | 2 kts | 212° |
| 2026-05-05 22:52 | 9.08728 | -79.37542 | 144 ft | 2 kts | 210° |
| 2026-05-05 22:52 | 9.08741 | -79.37534 | 144 ft | 2 kts | 211° |
| 2026-05-05 22:53 | 9.08750 | -79.37529 | 144 ft | 0 kts | 211° |
| 2026-05-05 22:55 | 9.08744 | -79.37533 | 144 ft | 2 kts | 211° |
| 2026-05-05 22:55 | 9.08723 | -79.37545 | 144 ft | 4 kts | 211° |
| 2026-05-05 22:56 | 9.08699 | -79.37560 | 144 ft | 4 kts | 211° |
| 2026-05-05 22:56 | 9.08668 | -79.37579 | 144 ft | 5 kts | 211° |
| 2026-05-05 22:56 | 9.08637 | -79.37597 | 144 ft | 5 kts | 211° |
| 2026-05-05 22:56 | 9.08608 | -79.37614 | 144 ft | 5 kts | 211° |
| 2026-05-05 22:57 | 9.08573 | -79.37635 | 144 ft | 5 kts | 211° |
| 2026-05-05 22:57 | 9.08536 | -79.37657 | 144 ft | 8 kts | 212° |
| 2026-05-05 22:57 | 9.08481 | -79.37706 | 144 ft | 13 kts | 225° |
| 2026-05-05 22:57 | 9.08406 | -79.37784 | 144 ft | 17 kts | 226° |
| 2026-05-05 22:58 | 9.08309 | -79.37886 | 144 ft | 21 kts | 226° |
| 2026-05-05 22:58 | 9.08211 | -79.37987 | 144 ft | 19 kts | 224° |
| 2026-05-05 22:58 | 9.08108 | -79.38060 | 144 ft | 17 kts | 211° |
| 2026-05-05 22:58 | 9.08012 | -79.38117 | 144 ft | 15 kts | 211° |
| 2026-05-05 22:59 | 9.07929 | -79.38167 | 144 ft | 13 kts | 210° |
| 2026-05-05 22:59 | 9.07857 | -79.38210 | 144 ft | 11 kts | 211° |
| 2026-05-05 22:59 | 9.07795 | -79.38247 | 144 ft | 9 kts | 211° |
| 2026-05-05 22:59 | 9.07744 | -79.38277 | 144 ft | 7 kts | 211° |
| 2026-05-05 23:00 | 9.07667 | -79.38324 | 144 ft | 5 kts | 211° |
| 2026-05-05 23:00 | 9.07633 | -79.38345 | 144 ft | 5 kts | 211° |
| 2026-05-05 23:00 | 9.07600 | -79.38364 | 144 ft | 5 kts | 211° |
| 2026-05-05 23:01 | 9.07567 | -79.38384 | 144 ft | 5 kts | 211° |
| 2026-05-05 23:01 | 9.07514 | -79.38416 | 144 ft | 12 kts | 211° |
| 2026-05-05 23:01 | 9.07416 | -79.38476 | 144 ft | 17 kts | 211° |
| 2026-05-05 23:01 | 9.07316 | -79.38537 | 144 ft | 15 kts | 211° |
| 2026-05-05 23:02 | 9.07266 | -79.38602 | 144 ft | 8 kts | 275° |
| 2026-05-05 23:02 | 9.07272 | -79.38657 | 144 ft | 7 kts | 277° |
| 2026-05-05 23:02 | 9.07289 | -79.38697 | 144 ft | 7 kts | 331° |
| 2026-05-05 23:02 | 9.07352 | -79.38684 | 144 ft | 12 kts | 31° |
| 2026-05-05 23:03 | 9.07551 | -79.38563 | 144 ft | 62 kts | 30° |
| 2026-05-05 23:03 | 9.08102 | -79.38234 | 145 ft | 122 kts | 31° |
| 2026-05-05 23:03 | 9.08987 | -79.37703 | 178 ft | 171 kts | 30° |
| 2026-05-05 23:03 | 9.09998 | -79.37038 | 762 ft | 175 kts | 37° |
| 2026-05-05 23:04 | 9.10944 | -79.36276 | 1404 ft | 175 kts | 38° |
| 2026-05-05 23:04 | 9.11951 | -79.35458 | 1517 ft | 202 kts | 37° |
| 2026-05-05 23:04 | 9.13141 | -79.34531 | 1700 ft | 229 kts | 37° |
| 2026-05-05 23:04 | 9.14434 | -79.33508 | 2198 ft | 243 kts | 37° |
| 2026-05-05 23:05 | 9.15751 | -79.32462 | 2975 ft | 245 kts | 37° |
| 2026-05-05 23:05 | 9.17089 | -79.31395 | 3849 ft | 243 kts | 38° |
| 2026-05-05 23:05 | 9.18406 | -79.30346 | 4568 ft | 247 kts | 38° |
| 2026-05-05 23:05 | 9.19767 | -79.29263 | 5269 ft | 254 kts | 38° |
| 2026-05-05 23:06 | 9.21191 | -79.28132 | 5628 ft | 274 kts | 38° |
| 2026-05-05 23:06 | 9.22682 | -79.26950 | 6536 ft | 272 kts | 38° |
| 2026-05-05 23:06 | 9.24188 | -79.25757 | 7275 ft | 277 kts | 38° |
| 2026-05-05 23:06 | 9.25688 | -79.24567 | 8046 ft | 280 kts | 38° |
| 2026-05-05 23:07 | 9.27232 | -79.23344 | 8817 ft | 283 kts | 38° |
| 2026-05-05 23:07 | 9.28766 | -79.22127 | 9563 ft | 286 kts | 38° |
| 2026-05-05 23:07 | 9.30332 | -79.20886 | 10284 ft | 290 kts | 38° |
| 2026-05-05 23:07 | 9.31967 | -79.19589 | 10557 ft | 311 kts | 39° |
| 2026-05-05 23:08 | 9.33751 | -79.18174 | 10653 ft | 338 kts | 39° |
| 2026-05-05 23:08 | 9.35662 | -79.16657 | 10742 ft | 364 kts | 39° |
| 2026-05-05 23:08 | 9.37690 | -79.15049 | 11301 ft | 374 kts | 39° |
| 2026-05-05 23:08 | 9.39738 | -79.13425 | 11872 ft | 383 kts | 39° |
| 2026-05-05 23:09 | 9.41826 | -79.11769 | 11855 ft | 375 kts | 39° |
| 2026-05-05 23:09 | 9.43875 | -79.10144 | 11859 ft | 375 kts | 39° |
| 2026-05-05 23:09 | 9.46063 | -79.08719 | 12185 ft | 384 kts | 25° |
| 2026-05-05 23:09 | 9.48623 | -79.07944 | 13172 ft | 384 kts | 10° |
| 2026-05-05 23:10 | 9.51272 | -79.07775 | 13778 ft | 393 kts | 1° |
| 2026-05-05 23:10 | 9.54016 | -79.07805 | 14524 ft | 396 kts | 1° |
| 2026-05-05 23:10 | 9.56759 | -79.07848 | 15189 ft | 401 kts | 0° |
| 2026-05-05 23:10 | 9.59568 | -79.07906 | 15871 ft | 405 kts | 0° |
| 2026-05-05 23:11 | 9.62373 | -79.07972 | 16533 ft | 409 kts | 0° |
| 2026-05-05 23:11 | 9.65211 | -79.08043 | 17177 ft | 413 kts | 0° |
| 2026-05-05 23:11 | 9.68067 | -79.08116 | 17814 ft | 416 kts | 0° |
| 2026-05-05 23:11 | 9.70985 | -79.08192 | 18453 ft | 420 kts | 0° |
| 2026-05-05 23:12 | 9.73652 | -79.08261 | 19067 ft | 422 kts | 0° |
| 2026-05-05 23:12 | 9.76586 | -79.08338 | 19688 ft | 425 kts | 360° |
| 2026-05-05 23:12 | 9.79562 | -79.08417 | 20306 ft | 427 kts | 360° |
| 2026-05-05 23:12 | 9.82547 | -79.08495 | 20906 ft | 430 kts | 360° |
| 2026-05-05 23:13 | 9.85559 | -79.08575 | 21474 ft | 433 kts | 359° |
| 2026-05-05 23:13 | 9.88597 | -79.08655 | 22042 ft | 435 kts | 359° |
| 2026-05-05 23:13 | 9.91667 | -79.08736 | 22598 ft | 438 kts | 359° |
| 2026-05-05 23:13 | 9.94692 | -79.08817 | 23122 ft | 441 kts | 359° |
| 2026-05-05 23:14 | 9.97775 | -79.08898 | 23660 ft | 443 kts | 359° |
| 2026-05-05 23:14 | 10.00843 | -79.08979 | 24170 ft | 445 kts | 359° |
| 2026-05-05 23:14 | 10.03964 | -79.09062 | 24671 ft | 448 kts | 359° |
| 2026-05-05 23:14 | 10.07119 | -79.09145 | 25092 ft | 452 kts | 359° |
| 2026-05-05 23:15 | 10.10284 | -79.09229 | 25568 ft | 455 kts | 359° |
| 2026-05-05 23:15 | 10.13443 | -79.09313 | 25966 ft | 458 kts | 359° |
| 2026-05-05 23:15 | 10.16639 | -79.09398 | 26430 ft | 461 kts | 359° |
| 2026-05-05 23:15 | 10.19918 | -79.09485 | 26802 ft | 465 kts | 359° |
| 2026-05-05 23:16 | 10.23118 | -79.09570 | 27243 ft | 467 kts | 359° |
| 2026-05-05 23:16 | 10.26226 | -79.09652 | 27566 ft | 471 kts | 359° |
| 2026-05-05 23:16 | 10.29566 | -79.09740 | 27986 ft | 473 kts | 359° |
| 2026-05-05 23:16 | 10.32818 | -79.09827 | 28355 ft | 475 kts | 359° |
| 2026-05-05 23:17 | 10.36005 | -79.09911 | 28656 ft | 479 kts | 359° |
| 2026-05-05 23:17 | 10.39335 | -79.10000 | 29050 ft | 481 kts | 358° |
| 2026-05-05 23:17 | 10.42669 | -79.10088 | 29389 ft | 483 kts | 358° |
| 2026-05-05 23:17 | 10.46048 | -79.10178 | 29860 ft | 482 kts | 358° |
| 2026-05-05 23:18 | 10.49377 | -79.10266 | 30382 ft | 480 kts | 358° |
| 2026-05-05 23:18 | 10.52752 | -79.10355 | 30832 ft | 479 kts | 358° |
| 2026-05-05 23:18 | 10.56095 | -79.10445 | 31279 ft | 478 kts | 358° |
| 2026-05-05 23:18 | 10.59448 | -79.10533 | 31702 ft | 478 kts | 358° |
| 2026-05-05 23:19 | 10.62748 | -79.10621 | 32068 ft | 478 kts | 358° |
| 2026-05-05 23:19 | 10.64993 | -79.10681 | 32360 ft | 476 kts | 358° |
| 2026-05-05 23:19 | 10.69353 | -79.10796 | 32888 ft | 475 kts | 358° |
| 2026-05-05 23:19 | 10.72681 | -79.10885 | 33319 ft | 473 kts | 358° |
| 2026-05-05 23:20 | 10.75994 | -79.10973 | 33671 ft | 472 kts | 358° |
| 2026-05-05 23:20 | 10.79201 | -79.11059 | 34013 ft | 471 kts | 358° |
| 2026-05-05 23:20 | 10.82497 | -79.11146 | 34361 ft | 470 kts | 358° |
| 2026-05-05 23:20 | 10.85761 | -79.11233 | 34690 ft | 469 kts | 358° |
| 2026-05-05 23:21 | 10.89003 | -79.11319 | 34876 ft | 469 kts | 358° |
| 2026-05-05 23:21 | 10.92255 | -79.11406 | 34873 ft | 468 kts | 358° |
| 2026-05-05 23:21 | 10.98776 | -79.11580 | 34874 ft | 467 kts | 358° |
| 2026-05-05 23:22 | 11.05258 | -79.11752 | 34875 ft | 467 kts | 358° |
| 2026-05-05 23:22 | 11.11762 | -79.11925 | 34876 ft | 466 kts | 358° |
| 2026-05-05 23:23 | 11.18302 | -79.12100 | 34876 ft | 466 kts | 358° |
| 2026-05-05 23:23 | 11.24842 | -79.12274 | 34876 ft | 465 kts | 358° |
| 2026-05-05 23:24 | 11.31333 | -79.12447 | 34877 ft | 465 kts | 358° |
| 2026-05-05 23:24 | 11.37872 | -79.12622 | 34877 ft | 465 kts | 358° |
| 2026-05-05 23:25 | 11.44352 | -79.12795 | 34879 ft | 464 kts | 358° |
| 2026-05-05 23:25 | 11.50883 | -79.12970 | 34883 ft | 464 kts | 358° |
| 2026-05-05 23:26 | 11.57392 | -79.13144 | 34884 ft | 465 kts | 358° |
| 2026-05-05 23:26 | 11.63888 | -79.13119 | 34889 ft | 465 kts | 6° |
| 2026-05-05 23:27 | 11.70322 | -79.12065 | 34883 ft | 465 kts | 8° |
| 2026-05-05 23:27 | 11.75639 | -79.11147 | 34884 ft | 465 kts | 8° |
| 2026-05-05 23:28 | 11.83151 | -79.09834 | 34884 ft | 465 kts | 9° |
| 2026-05-05 23:28 | 11.89574 | -79.08704 | 34887 ft | 465 kts | 9° |
| 2026-05-05 23:29 | 11.95989 | -79.07574 | 34892 ft | 465 kts | 9° |
| 2026-05-05 23:29 | 12.02390 | -79.06445 | 34895 ft | 465 kts | 8° |
| 2026-05-05 23:30 | 12.08790 | -79.05316 | 34894 ft | 464 kts | 8° |
| 2026-05-05 23:30 | 12.15177 | -79.04189 | 34895 ft | 464 kts | 8° |
| 2026-05-05 23:31 | 12.21598 | -79.03056 | 34894 ft | 464 kts | 8° |
| 2026-05-05 23:31 | 12.27986 | -79.01926 | 34892 ft | 464 kts | 8° |
| 2026-05-05 23:32 | 12.34387 | -79.00795 | 34891 ft | 464 kts | 8° |
| 2026-05-05 23:32 | 12.40818 | -78.99657 | 34889 ft | 464 kts | 8° |
| 2026-05-05 23:33 | 12.47216 | -78.98526 | 34888 ft | 465 kts | 8° |
| 2026-05-05 23:33 | 12.53616 | -78.97392 | 34892 ft | 464 kts | 8° |
| 2026-05-05 23:34 | 12.59996 | -78.96262 | 34902 ft | 464 kts | 8° |
| 2026-05-05 23:34 | 12.66435 | -78.95121 | 34911 ft | 464 kts | 8° |
| 2026-05-05 23:35 | 12.72822 | -78.93989 | 34911 ft | 464 kts | 8° |
| 2026-05-05 23:35 | 12.79228 | -78.92852 | 34911 ft | 465 kts | 8° |
| 2026-05-05 23:36 | 12.85650 | -78.91712 | 34911 ft | 465 kts | 8° |
| 2026-05-05 23:36 | 12.92027 | -78.90580 | 34911 ft | 464 kts | 8° |
| 2026-05-05 23:37 | 12.98416 | -78.89437 | 34951 ft | 463 kts | 8° |
| 2026-05-05 23:37 | 13.04758 | -78.88314 | 35208 ft | 465 kts | 8° |
| 2026-05-05 23:38 | 13.07929 | -78.87751 | 35556 ft | 463 kts | 8° |
| 2026-05-05 23:38 | 13.11109 | -78.87186 | 35777 ft | 464 kts | 8° |
| 2026-05-05 23:38 | 13.14255 | -78.86627 | 35979 ft | 463 kts | 8° |
| 2026-05-05 23:38 | 13.17421 | -78.86063 | 36002 ft | 464 kts | 8° |
| 2026-05-05 23:39 | 13.23729 | -78.84941 | 36000 ft | 463 kts | 8° |
| 2026-05-05 23:39 | 13.30052 | -78.83815 | 36001 ft | 463 kts | 8° |
| 2026-05-05 23:40 | 13.36404 | -78.82683 | 36000 ft | 463 kts | 8° |
| 2026-05-05 23:40 | 13.42720 | -78.81557 | 36001 ft | 463 kts | 8° |
| 2026-05-05 23:41 | 13.49060 | -78.80424 | 36000 ft | 463 kts | 8° |
| 2026-05-05 23:41 | 13.55365 | -78.79299 | 36001 ft | 463 kts | 7° |
| 2026-05-05 23:42 | 13.61682 | -78.78172 | 36000 ft | 463 kts | 7° |
| 2026-05-05 23:42 | 13.68041 | -78.77035 | 36000 ft | 463 kts | 7° |
| 2026-05-05 23:43 | 13.74324 | -78.75911 | 36000 ft | 463 kts | 7° |
| 2026-05-05 23:43 | 13.80653 | -78.74779 | 36000 ft | 463 kts | 7° |
| 2026-05-05 23:44 | 13.87015 | -78.73640 | 35954 ft | 464 kts | 7° |
| 2026-05-05 23:44 | 13.93303 | -78.72514 | 35938 ft | 463 kts | 7° |
| 2026-05-05 23:45 | 13.99630 | -78.71380 | 35939 ft | 464 kts | 7° |
| 2026-05-05 23:45 | 14.05978 | -78.70241 | 35938 ft | 462 kts | 7° |
| 2026-05-05 23:46 | 14.12256 | -78.69115 | 35941 ft | 462 kts | 7° |
| 2026-05-05 23:46 | 14.18590 | -78.67979 | 35941 ft | 462 kts | 7° |
| 2026-05-05 23:47 | 14.24911 | -78.66843 | 35941 ft | 462 kts | 7° |
| 2026-05-05 23:47 | 14.31205 | -78.65712 | 35941 ft | 462 kts | 7° |
| 2026-05-05 23:48 | 14.37492 | -78.64581 | 35941 ft | 462 kts | 7° |
| 2026-05-05 23:48 | 14.43817 | -78.63444 | 35941 ft | 462 kts | 7° |
| 2026-05-05 23:49 | 14.50128 | -78.62307 | 35940 ft | 461 kts | 7° |
| 2026-05-05 23:49 | 14.56393 | -78.61179 | 35940 ft | 462 kts | 7° |
| 2026-05-05 23:50 | 14.62701 | -78.60041 | 35940 ft | 461 kts | 7° |
| 2026-05-05 23:50 | 14.69001 | -78.58906 | 35940 ft | 461 kts | 7° |
| 2026-05-05 23:51 | 14.75280 | -78.57772 | 35940 ft | 460 kts | 7° |
| 2026-05-05 23:51 | 14.81543 | -78.56641 | 35940 ft | 460 kts | 7° |
| 2026-05-05 23:52 | 14.87816 | -78.55508 | 35940 ft | 460 kts | 7° |
| 2026-05-05 23:52 | 14.94104 | -78.54372 | 35947 ft | 459 kts | 7° |
| 2026-05-05 23:53 | 15.00380 | -78.53240 | 35957 ft | 459 kts | 7° |
| 2026-05-05 23:53 | 15.06622 | -78.52173 | 35966 ft | 458 kts | 6° |
| 2026-05-05 23:54 | 15.12877 | -78.51104 | 35970 ft | 457 kts | 7° |
| 2026-05-05 23:54 | 15.19135 | -78.50034 | 35969 ft | 457 kts | 7° |
| 2026-05-05 23:55 | 15.25401 | -78.48962 | 35969 ft | 457 kts | 7° |
| 2026-05-05 23:55 | 15.31643 | -78.47892 | 35969 ft | 457 kts | 7° |
| 2026-05-05 23:56 | 15.37883 | -78.46822 | 35969 ft | 456 kts | 6° |
| 2026-05-05 23:56 | 15.44121 | -78.45753 | 35969 ft | 456 kts | 6° |
| 2026-05-05 23:57 | 15.50350 | -78.44684 | 35968 ft | 456 kts | 6° |
| 2026-05-05 23:57 | 15.56583 | -78.43613 | 35968 ft | 456 kts | 7° |
| 2026-05-05 23:58 | 15.62834 | -78.42539 | 35968 ft | 456 kts | 7° |
| 2026-05-05 23:58 | 15.69040 | -78.41473 | 35968 ft | 456 kts | 7° |
| 2026-05-05 23:59 | 15.75272 | -78.40400 | 35968 ft | 456 kts | 6° |
| 2026-05-05 23:59 | 15.81471 | -78.39333 | 35967 ft | 454 kts | 6° |
| 2026-05-06 00:00 | 15.87708 | -78.38258 | 35967 ft | 455 kts | 6° |
| 2026-05-06 00:00 | 15.93905 | -78.37190 | 35967 ft | 455 kts | 6° |
| 2026-05-06 00:01 | 16.00145 | -78.36114 | 35967 ft | 455 kts | 6° |
| 2026-05-06 00:01 | 16.06326 | -78.35048 | 35966 ft | 454 kts | 6° |
| 2026-05-06 00:02 | 16.12556 | -78.33972 | 35966 ft | 455 kts | 7° |
| 2026-05-06 00:02 | 16.18782 | -78.32896 | 35966 ft | 455 kts | 7° |
| 2026-05-06 00:03 | 16.24959 | -78.31828 | 35965 ft | 455 kts | 7° |
| 2026-05-06 00:03 | 16.31169 | -78.30754 | 35965 ft | 454 kts | 7° |
| 2026-05-06 00:04 | 16.37392 | -78.29677 | 35965 ft | 454 kts | 7° |
| 2026-05-06 00:04 | 16.43588 | -78.28603 | 35965 ft | 454 kts | 7° |
| 2026-05-06 00:05 | 16.52894 | -78.26990 | 35964 ft | 454 kts | 7° |
| 2026-05-06 00:06 | 16.59099 | -78.25914 | 35964 ft | 454 kts | 7° |
| 2026-05-06 00:06 | 16.65300 | -78.24837 | 35964 ft | 454 kts | 7° |
| 2026-05-06 00:07 | 16.71517 | -78.23757 | 35964 ft | 454 kts | 7° |
| 2026-05-06 00:07 | 16.77726 | -78.22678 | 35964 ft | 454 kts | 7° |
| 2026-05-06 00:08 | 16.83904 | -78.21603 | 35965 ft | 454 kts | 7° |
| 2026-05-06 00:08 | 16.90091 | -78.20525 | 35966 ft | 453 kts | 7° |
| 2026-05-06 00:09 | 16.96310 | -78.19443 | 35967 ft | 453 kts | 7° |
| 2026-05-06 00:09 | 17.02487 | -78.18366 | 35967 ft | 452 kts | 6° |
| 2026-05-06 00:10 | 17.08670 | -78.17287 | 35969 ft | 452 kts | 6° |
| 2026-05-06 00:10 | 17.14812 | -78.16215 | 35975 ft | 452 kts | 6° |
| 2026-05-06 00:11 | 17.21022 | -78.15131 | 35976 ft | 452 kts | 6° |
| 2026-05-06 00:11 | 17.27195 | -78.14051 | 35977 ft | 452 kts | 6° |
| 2026-05-06 00:12 | 17.33374 | -78.12970 | 35978 ft | 452 kts | 6° |
| 2026-05-06 00:12 | 17.39554 | -78.11889 | 35979 ft | 452 kts | 6° |
| 2026-05-06 00:13 | 17.45740 | -78.10805 | 35980 ft | 452 kts | 6° |
| 2026-05-06 00:13 | 17.51920 | -78.09722 | 35981 ft | 452 kts | 6° |
| 2026-05-06 00:14 | 17.58085 | -78.08641 | 35982 ft | 452 kts | 7° |
| 2026-05-06 00:14 | 17.64188 | -78.07571 | 35980 ft | 441 kts | 7° |
| 2026-05-06 00:15 | 17.70209 | -78.06513 | 35984 ft | 445 kts | 7° |
| 2026-05-06 00:15 | 17.76321 | -78.05439 | 35984 ft | 444 kts | 7° |
| 2026-05-06 00:16 | 17.82379 | -78.04373 | 35985 ft | 444 kts | 7° |
| 2026-05-06 00:16 | 17.88456 | -78.03303 | 35986 ft | 444 kts | 7° |
| 2026-05-06 00:17 | 17.94513 | -78.02237 | 35985 ft | 444 kts | 7° |
| 2026-05-06 00:17 | 18.00596 | -78.01165 | 35977 ft | 444 kts | 7° |
| 2026-05-06 00:18 | 18.06631 | -78.00101 | 35967 ft | 444 kts | 7° |
| 2026-05-06 00:18 | 18.12711 | -77.99027 | 35969 ft | 444 kts | 7° |
| 2026-05-06 00:19 | 18.18786 | -77.97955 | 35968 ft | 444 kts | 7° |
| 2026-05-06 00:19 | 18.24836 | -77.96886 | 35968 ft | 444 kts | 7° |
| 2026-05-06 00:20 | 18.30928 | -77.95808 | 35967 ft | 444 kts | 7° |
| 2026-05-06 00:20 | 18.37011 | -77.94731 | 35966 ft | 443 kts | 7° |
| 2026-05-06 00:21 | 18.43038 | -77.93664 | 35967 ft | 443 kts | 7° |
| 2026-05-06 00:21 | 18.49108 | -77.92654 | 35967 ft | 442 kts | 2° |
| 2026-05-06 00:22 | 18.55199 | -77.92825 | 35966 ft | 441 kts | 355° |
| 2026-05-06 00:22 | 18.61310 | -77.93237 | 35992 ft | 439 kts | 355° |
| 2026-05-06 00:23 | 18.67384 | -77.93665 | 35992 ft | 439 kts | 355° |
| 2026-05-06 00:23 | 18.73456 | -77.94101 | 35991 ft | 439 kts | 355° |
| 2026-05-06 00:24 | 18.79506 | -77.94537 | 35990 ft | 438 kts | 354° |
| 2026-05-06 00:24 | 18.85587 | -77.94976 | 35990 ft | 438 kts | 354° |
| 2026-05-06 00:25 | 18.91647 | -77.95415 | 35990 ft | 438 kts | 354° |
| 2026-05-06 00:25 | 18.97687 | -77.95853 | 35989 ft | 437 kts | 354° |
| 2026-05-06 00:26 | 19.03734 | -77.96292 | 35988 ft | 437 kts | 354° |
| 2026-05-06 00:26 | 19.09767 | -77.96729 | 35994 ft | 436 kts | 354° |
| 2026-05-06 00:27 | 19.15800 | -77.97168 | 36013 ft | 437 kts | 354° |
| 2026-05-06 00:27 | 19.21825 | -77.97606 | 36022 ft | 436 kts | 354° |
| 2026-05-06 00:28 | 19.27839 | -77.98044 | 36022 ft | 435 kts | 354° |
| 2026-05-06 00:28 | 19.33898 | -77.98485 | 36022 ft | 437 kts | 354° |
| 2026-05-06 00:29 | 19.39896 | -77.98922 | 36020 ft | 435 kts | 354° |
| 2026-05-06 00:29 | 19.45909 | -77.99361 | 36020 ft | 434 kts | 354° |
| 2026-05-06 00:30 | 19.51911 | -77.99799 | 36020 ft | 435 kts | 354° |
| 2026-05-06 00:30 | 19.57935 | -78.00239 | 36019 ft | 435 kts | 354° |
| 2026-05-06 00:31 | 19.63951 | -78.00678 | 36018 ft | 434 kts | 354° |
| 2026-05-06 00:31 | 19.69950 | -78.01117 | 36018 ft | 434 kts | 354° |
| 2026-05-06 00:32 | 19.75928 | -78.01555 | 36017 ft | 434 kts | 354° |
| 2026-05-06 00:32 | 19.81934 | -78.02087 | 36019 ft | 433 kts | 350° |
| 2026-05-06 00:33 | 19.87862 | -78.03144 | 36016 ft | 433 kts | 349° |
| 2026-05-06 00:33 | 19.93769 | -78.04205 | 36016 ft | 433 kts | 349° |
| 2026-05-06 00:34 | 19.99688 | -78.05270 | 36015 ft | 433 kts | 349° |
| 2026-05-06 00:34 | 20.05620 | -78.06342 | 36015 ft | 433 kts | 349° |
| 2026-05-06 00:35 | 20.11546 | -78.07412 | 36021 ft | 433 kts | 349° |
| 2026-05-06 00:35 | 20.17460 | -78.08482 | 36022 ft | 433 kts | 349° |
| 2026-05-06 00:36 | 20.23381 | -78.09553 | 36022 ft | 433 kts | 349° |
| 2026-05-06 00:36 | 20.29288 | -78.10623 | 36021 ft | 432 kts | 349° |
| 2026-05-06 00:37 | 20.35199 | -78.11695 | 36023 ft | 431 kts | 349° |
| 2026-05-06 00:37 | 20.41076 | -78.12762 | 36033 ft | 432 kts | 349° |
| 2026-05-06 00:38 | 20.46970 | -78.13832 | 36042 ft | 432 kts | 349° |
| 2026-05-06 00:38 | 20.52852 | -78.14901 | 36046 ft | 432 kts | 349° |
| 2026-05-06 00:39 | 20.58782 | -78.15980 | 36045 ft | 430 kts | 349° |
| 2026-05-06 00:39 | 20.64630 | -78.17044 | 36045 ft | 431 kts | 349° |
| 2026-05-06 00:40 | 20.70538 | -78.18120 | 36043 ft | 430 kts | 349° |
| 2026-05-06 00:40 | 20.76397 | -78.19188 | 36043 ft | 429 kts | 349° |
| 2026-05-06 00:41 | 20.82241 | -78.20255 | 36043 ft | 429 kts | 349° |
| 2026-05-06 00:41 | 20.88101 | -78.21324 | 36041 ft | 428 kts | 349° |
| 2026-05-06 00:42 | 20.93968 | -78.22397 | 36042 ft | 428 kts | 348° |
| 2026-05-06 00:42 | 20.99821 | -78.23467 | 36044 ft | 427 kts | 348° |
| 2026-05-06 00:43 | 21.05636 | -78.24532 | 36053 ft | 426 kts | 348° |
| 2026-05-06 00:43 | 21.11443 | -78.25595 | 36070 ft | 427 kts | 348° |
| 2026-05-06 00:44 | 21.17284 | -78.26666 | 36075 ft | 425 kts | 348° |
| 2026-05-06 00:44 | 21.23079 | -78.27728 | 36076 ft | 425 kts | 348° |
| 2026-05-06 00:45 | 21.28907 | -78.28799 | 36075 ft | 425 kts | 348° |
| 2026-05-06 00:45 | 21.34671 | -78.29858 | 36074 ft | 424 kts | 348° |
| 2026-05-06 00:46 | 21.40456 | -78.30922 | 36073 ft | 424 kts | 348° |
| 2026-05-06 00:46 | 21.46249 | -78.31988 | 36071 ft | 424 kts | 348° |
| 2026-05-06 00:47 | 21.52065 | -78.33059 | 36060 ft | 423 kts | 348° |
| 2026-05-06 00:47 | 21.57829 | -78.34122 | 36050 ft | 424 kts | 348° |
| 2026-05-06 00:48 | 21.63608 | -78.35188 | 36043 ft | 422 kts | 348° |
| 2026-05-06 00:48 | 21.69378 | -78.36254 | 36043 ft | 423 kts | 348° |
| 2026-05-06 00:49 | 21.75152 | -78.37322 | 36042 ft | 423 kts | 348° |
| 2026-05-06 00:49 | 21.80940 | -78.38392 | 36041 ft | 423 kts | 348° |
| 2026-05-06 00:50 | 21.86705 | -78.39459 | 36040 ft | 423 kts | 348° |
| 2026-05-06 00:50 | 21.92464 | -78.40526 | 36039 ft | 421 kts | 348° |
| 2026-05-06 00:51 | 21.98211 | -78.41592 | 36039 ft | 422 kts | 348° |
| 2026-05-06 00:51 | 22.03972 | -78.42660 | 36038 ft | 421 kts | 348° |
| 2026-05-06 00:52 | 22.09740 | -78.43732 | 36037 ft | 421 kts | 348° |
| 2026-05-06 00:52 | 22.15473 | -78.44797 | 36048 ft | 421 kts | 348° |
| 2026-05-06 00:53 | 22.21238 | -78.45869 | 36047 ft | 421 kts | 348° |
| 2026-05-06 00:53 | 22.26984 | -78.46938 | 36046 ft | 421 kts | 348° |
| 2026-05-06 00:54 | 22.31770 | -78.47830 | 36046 ft | 421 kts | 348° |
| 2026-05-06 00:54 | 22.38530 | -78.49091 | 36045 ft | 422 kts | 347° |
| 2026-05-06 00:55 | 22.44278 | -78.50163 | 36044 ft | 420 kts | 347° |
| 2026-05-06 00:55 | 22.50008 | -78.51234 | 36043 ft | 421 kts | 347° |
| 2026-05-06 00:56 | 22.55778 | -78.52313 | 36042 ft | 421 kts | 347° |
| 2026-05-06 00:56 | 22.61533 | -78.53390 | 36042 ft | 421 kts | 347° |
| 2026-05-06 00:57 | 22.67288 | -78.54468 | 36041 ft | 420 kts | 347° |
| 2026-05-06 00:57 | 22.72996 | -78.55537 | 36040 ft | 421 kts | 347° |
| 2026-05-06 00:58 | 22.78767 | -78.56620 | 36039 ft | 421 kts | 347° |
| 2026-05-06 00:58 | 22.84542 | -78.57705 | 36038 ft | 419 kts | 347° |
| 2026-05-06 00:59 | 22.90261 | -78.58779 | 36038 ft | 420 kts | 347° |
| 2026-05-06 00:59 | 22.96019 | -78.59862 | 36037 ft | 419 kts | 347° |
| 2026-05-06 01:00 | 23.01751 | -78.60941 | 36036 ft | 419 kts | 347° |
| 2026-05-06 01:00 | 23.07437 | -78.62013 | 36035 ft | 418 kts | 347° |
| 2026-05-06 01:01 | 23.13174 | -78.63094 | 36047 ft | 418 kts | 347° |
| 2026-05-06 01:01 | 23.18869 | -78.64168 | 36045 ft | 417 kts | 347° |
| 2026-05-06 01:02 | 23.24591 | -78.65250 | 36051 ft | 418 kts | 347° |
| 2026-05-06 01:02 | 23.30292 | -78.66328 | 36052 ft | 418 kts | 347° |
| 2026-05-06 01:03 | 23.35968 | -78.67401 | 36051 ft | 417 kts | 346° |
| 2026-05-06 01:03 | 23.41677 | -78.68483 | 36048 ft | 417 kts | 346° |
| 2026-05-06 01:04 | 23.47376 | -78.69563 | 36044 ft | 417 kts | 346° |
| 2026-05-06 01:04 | 23.53057 | -78.70641 | 36039 ft | 417 kts | 346° |
| 2026-05-06 01:05 | 23.58769 | -78.71725 | 36038 ft | 417 kts | 346° |
| 2026-05-06 01:05 | 23.64438 | -78.72803 | 36037 ft | 416 kts | 346° |
| 2026-05-06 01:06 | 23.70128 | -78.73885 | 36036 ft | 416 kts | 346° |
| 2026-05-06 01:06 | 23.75795 | -78.74964 | 36035 ft | 416 kts | 346° |
| 2026-05-06 01:07 | 23.81472 | -78.76046 | 36035 ft | 417 kts | 346° |
| 2026-05-06 01:07 | 23.87184 | -78.77135 | 36034 ft | 417 kts | 346° |
| 2026-05-06 01:08 | 23.92160 | -78.78085 | 36033 ft | 417 kts | 346° |
| 2026-05-06 01:08 | 23.97431 | -78.79117 | 36032 ft | 415 kts | 343° |
| 2026-05-06 01:09 | 24.02527 | -78.81394 | 36039 ft | 407 kts | 328° |
| 2026-05-06 01:09 | 24.07589 | -78.84656 | 36031 ft | 406 kts | 328° |
| 2026-05-06 01:10 | 24.12333 | -78.87756 | 36043 ft | 407 kts | 327° |
| 2026-05-06 01:10 | 24.17218 | -78.90974 | 36041 ft | 406 kts | 327° |
| 2026-05-06 01:11 | 24.22075 | -78.94184 | 36040 ft | 406 kts | 327° |
| 2026-05-06 01:11 | 24.24515 | -78.95800 | 35793 ft | 407 kts | 327° |
| 2026-05-06 01:11 | 24.26880 | -78.97366 | 35372 ft | 400 kts | 327° |
| 2026-05-06 01:11 | 24.29241 | -78.98931 | 34907 ft | 395 kts | 327° |
| 2026-05-06 01:12 | 24.31618 | -79.00509 | 34414 ft | 398 kts | 327° |
| 2026-05-06 01:12 | 24.33989 | -79.02084 | 33892 ft | 403 kts | 327° |
| 2026-05-06 01:12 | 24.36379 | -79.03670 | 33331 ft | 407 kts | 327° |
| 2026-05-06 01:12 | 24.38802 | -79.05281 | 32727 ft | 409 kts | 327° |
| 2026-05-06 01:13 | 24.41234 | -79.06897 | 32134 ft | 411 kts | 327° |
| 2026-05-06 01:13 | 24.43674 | -79.08520 | 31616 ft | 412 kts | 327° |
| 2026-05-06 01:13 | 24.46120 | -79.10148 | 31147 ft | 415 kts | 327° |
| 2026-05-06 01:13 | 24.48599 | -79.11798 | 30696 ft | 418 kts | 327° |
| 2026-05-06 01:14 | 24.53567 | -79.15108 | 29783 ft | 422 kts | 327° |
| 2026-05-06 01:14 | 24.56089 | -79.16788 | 29311 ft | 422 kts | 327° |
| 2026-05-06 01:14 | 24.58574 | -79.18446 | 28843 ft | 418 kts | 327° |
| 2026-05-06 01:15 | 24.61034 | -79.20087 | 28383 ft | 416 kts | 327° |
| 2026-05-06 01:15 | 24.63467 | -79.21711 | 27929 ft | 413 kts | 327° |
| 2026-05-06 01:15 | 24.65930 | -79.23356 | 27472 ft | 411 kts | 326° |
| 2026-05-06 01:15 | 24.68334 | -79.24963 | 27026 ft | 409 kts | 326° |
| 2026-05-06 01:16 | 24.70758 | -79.26583 | 26577 ft | 407 kts | 326° |
| 2026-05-06 01:16 | 24.73177 | -79.28201 | 26131 ft | 405 kts | 326° |
| 2026-05-06 01:16 | 24.75548 | -79.29787 | 25694 ft | 403 kts | 326° |
| 2026-05-06 01:16 | 24.77936 | -79.31387 | 25256 ft | 401 kts | 326° |
| 2026-05-06 01:17 | 24.80297 | -79.32967 | 24822 ft | 398 kts | 326° |
| 2026-05-06 01:17 | 24.82661 | -79.34552 | 24402 ft | 397 kts | 326° |
| 2026-05-06 01:17 | 24.85001 | -79.36121 | 23979 ft | 395 kts | 326° |
| 2026-05-06 01:17 | 24.87320 | -79.37676 | 23567 ft | 393 kts | 326° |
| 2026-05-06 01:18 | 24.89661 | -79.39247 | 23154 ft | 391 kts | 326° |
| 2026-05-06 01:18 | 24.91959 | -79.40790 | 22752 ft | 390 kts | 326° |
| 2026-05-06 01:18 | 24.94252 | -79.42330 | 22351 ft | 388 kts | 326° |
| 2026-05-06 01:18 | 24.96569 | -79.43887 | 21947 ft | 386 kts | 326° |
| 2026-05-06 01:19 | 24.98827 | -79.45405 | 21559 ft | 385 kts | 326° |
| 2026-05-06 01:19 | 25.01100 | -79.46933 | 21164 ft | 383 kts | 326° |
| 2026-05-06 01:19 | 25.03370 | -79.48460 | 20773 ft | 381 kts | 326° |
| 2026-05-06 01:19 | 25.05615 | -79.49971 | 20403 ft | 380 kts | 326° |
| 2026-05-06 01:20 | 25.07832 | -79.51463 | 20332 ft | 364 kts | 326° |
| 2026-05-06 01:20 | 25.09963 | -79.52897 | 20203 ft | 353 kts | 326° |
| 2026-05-06 01:20 | 25.12054 | -79.54308 | 19881 ft | 356 kts | 326° |
| 2026-05-06 01:20 | 25.14151 | -79.55721 | 19465 ft | 352 kts | 326° |
| 2026-05-06 01:21 | 25.16207 | -79.57107 | 19051 ft | 348 kts | 326° |
| 2026-05-06 01:21 | 25.18284 | -79.58510 | 18640 ft | 347 kts | 327° |
| 2026-05-06 01:21 | 25.20331 | -79.59892 | 18241 ft | 346 kts | 327° |
| 2026-05-06 01:21 | 25.22374 | -79.61271 | 17847 ft | 344 kts | 327° |
| 2026-05-06 01:22 | 25.24402 | -79.62640 | 17460 ft | 343 kts | 327° |
| 2026-05-06 01:22 | 25.26425 | -79.64008 | 17079 ft | 341 kts | 327° |
| 2026-05-06 01:22 | 25.28418 | -79.65355 | 16707 ft | 340 kts | 326° |
| 2026-05-06 01:22 | 25.30432 | -79.66718 | 16340 ft | 339 kts | 326° |
| 2026-05-06 01:23 | 25.32436 | -79.68073 | 15970 ft | 337 kts | 326° |
| 2026-05-06 01:23 | 25.34432 | -79.69424 | 15600 ft | 336 kts | 326° |
| 2026-05-06 01:23 | 25.36417 | -79.70769 | 15232 ft | 335 kts | 326° |
| 2026-05-06 01:23 | 25.38341 | -79.72201 | 14862 ft | 332 kts | 317° |
| 2026-05-06 01:24 | 25.39856 | -79.74063 | 14514 ft | 329 kts | 305° |
| 2026-05-06 01:24 | 25.41190 | -79.76110 | 14148 ft | 329 kts | 305° |
| 2026-05-06 01:24 | 25.42522 | -79.78155 | 13781 ft | 327 kts | 305° |
| 2026-05-06 01:24 | 25.43839 | -79.80192 | 13420 ft | 326 kts | 304° |